createdAt,value
2018-06-13T00:00:02.430Z,23.43
2018-06-13T00:02:31.053Z,23.56
2018-06-13T00:04:59.587Z,23.57
2018-06-13T00:07:27.932Z,23.36
2018-06-13T00:09:56.533Z,23.29
2018-06-13T00:12:25.135Z,23.22
2018-06-13T00:14:53.583Z,23.48
2018-06-13T00:17:21.999Z,23.68
2018-06-13T00:19:50.597Z,23.61
2018-06-13T00:22:18.813Z,23.59
2018-06-13T00:24:48.024Z,23.48
2018-06-13T00:27:16.291Z,23.52
2018-06-13T00:29:44.665Z,23.40
2018-06-13T00:32:13.234Z,23.40
2018-06-13T00:34:41.630Z,23.30
2018-06-13T00:37:10.173Z,23.29
2018-06-13T00:39:38.847Z,23.04
2018-06-13T00:42:07.381Z,22.83
2018-06-13T00:44:35.774Z,22.79
2018-06-13T00:47:04.493Z,22.97
2018-06-13T00:49:33.030Z,22.61
2018-06-13T00:52:01.401Z,22.43
2018-06-13T00:54:29.897Z,22.47
2018-06-13T00:56:58.501Z,22.48
2018-06-13T00:59:26.854Z,22.67
2018-06-13T01:01:55.282Z,22.57
2018-06-13T01:04:23.844Z,22.41
2018-06-13T01:06:52.245Z,22.41
2018-06-13T01:09:20.722Z,22.57
2018-06-13T01:11:49.162Z,22.67
2018-06-13T01:14:17.554Z,22.60
2018-06-13T01:16:46.079Z,22.46
2018-06-13T01:19:14.604Z,22.42
2018-06-13T01:21:42.977Z,22.31
2018-06-13T01:24:11.562Z,22.09
2018-06-13T01:26:39.855Z,22.11
2018-06-13T01:29:08.229Z,22.16
2018-06-13T01:31:36.818Z,22.08
2018-06-13T01:34:05.224Z,22.04
2018-06-13T01:36:34.494Z,22.36
2018-06-13T01:39:03.187Z,22.55
2018-06-13T01:41:31.713Z,22.53
2018-06-13T01:44:00.219Z,22.33
2018-06-13T01:46:28.620Z,22.26
2018-06-13T01:48:57.325Z,22.37
2018-06-13T01:51:25.830Z,22.39
2018-06-13T01:53:54.248Z,22.11
2018-06-13T01:56:22.554Z,22.22
2018-06-13T01:58:51.154Z,22.49
2018-06-13T02:01:19.601Z,22.61
2018-06-13T02:03:47.988Z,22.53
2018-06-13T02:06:16.610Z,22.35
2018-06-13T02:08:44.910Z,22.27
2018-06-13T02:11:13.537Z,22.24
2018-06-13T02:13:42.016Z,22.28
2018-06-13T02:16:10.576Z,22.03
2018-06-13T02:18:39.090Z,22.14
2018-06-13T02:21:07.605Z,21.97
2018-06-13T02:23:35.984Z,22.23
2018-06-13T02:26:04.525Z,21.97
2018-06-13T02:28:32.971Z,21.85
2018-06-13T02:31:01.490Z,21.90
2018-06-13T02:33:30.105Z,22.01
2018-06-13T02:35:58.597Z,22.27
2018-06-13T02:38:26.991Z,22.31
2018-06-13T02:40:55.517Z,22.15
2018-06-13T02:43:24.002Z,22.10
2018-06-13T02:45:52.485Z,22.23
2018-06-13T02:48:21.868Z,22.15
2018-06-13T02:50:50.527Z,21.86
2018-06-13T02:53:19.075Z,21.65
2018-06-13T02:55:47.534Z,21.60
2018-06-13T02:58:16.121Z,21.41
2018-06-13T03:00:45.201Z,21.63
2018-06-13T03:03:13.750Z,21.77
2018-06-13T03:05:42.120Z,21.80
2018-06-13T03:08:10.361Z,21.22
2018-06-13T03:10:38.729Z,21.25
2018-06-13T03:13:07.387Z,21.20
2018-06-13T03:15:35.793Z,21.18
2018-06-13T03:18:04.178Z,21.23
2018-06-13T03:20:32.694Z,21.16
2018-06-13T03:23:01.345Z,21.31
2018-06-13T03:25:29.857Z,21.56
2018-06-13T03:27:58.492Z,21.72
2018-06-13T03:30:27.058Z,21.70
2018-06-13T03:32:56.369Z,21.74
2018-06-13T03:35:24.907Z,21.70
2018-06-13T03:37:53.387Z,21.69
2018-06-13T03:40:21.866Z,21.51
2018-06-13T03:42:50.506Z,21.63
2018-06-13T03:45:18.896Z,21.46
2018-06-13T03:47:47.287Z,21.47
2018-06-13T03:50:15.661Z,21.51
2018-06-13T03:52:43.985Z,21.60
2018-06-13T03:55:12.629Z,21.60
2018-06-13T03:57:41.219Z,21.90
2018-06-13T04:00:09.848Z,21.97
2018-06-13T04:02:38.499Z,22.15
2018-06-13T04:05:07.082Z,22.23
2018-06-13T04:07:35.509Z,22.27
2018-06-13T04:10:04.034Z,22.20
2018-06-13T04:12:32.636Z,21.93
2018-06-13T04:15:01.755Z,21.93
2018-06-13T04:17:30.091Z,21.91
2018-06-13T04:19:58.685Z,21.96
2018-06-13T04:22:27.306Z,22.07
2018-06-13T04:24:55.683Z,21.89
2018-06-13T04:27:24.242Z,21.91
2018-06-13T04:29:52.738Z,21.93
2018-06-13T04:32:21.096Z,21.93
2018-06-13T04:34:49.662Z,22.18
2018-06-13T04:37:18.191Z,22.17
2018-06-13T04:39:46.681Z,22.31
2018-06-13T04:42:15.154Z,22.29
2018-06-13T04:44:43.744Z,22.44
2018-06-13T04:47:12.046Z,22.57
2018-06-13T04:49:40.621Z,22.59
2018-06-13T04:52:09.041Z,22.64
2018-06-13T04:54:37.350Z,22.62
2018-06-13T04:57:05.904Z,22.47
2018-06-13T04:59:34.479Z,22.61
2018-06-13T05:02:02.901Z,22.79
2018-06-13T05:04:31.303Z,22.88
2018-06-13T05:06:59.731Z,23.04
2018-06-13T05:09:28.477Z,23.25
2018-06-13T05:11:57.101Z,22.99
2018-06-13T05:14:25.573Z,22.98
2018-06-13T05:16:53.929Z,23.17
2018-06-13T05:19:22.546Z,23.03
2018-06-13T05:21:51.038Z,22.93
2018-06-13T05:24:19.497Z,23.22
2018-06-13T05:26:48.116Z,23.08
2018-06-13T05:29:16.622Z,22.75
2018-06-13T05:31:44.936Z,22.93
2018-06-13T05:34:16.341Z,22.96
2018-06-13T05:36:44.852Z,23.11
2018-06-13T05:39:13.501Z,22.88
2018-06-13T05:41:42.162Z,23.28
2018-06-13T05:44:10.678Z,23.65
2018-06-13T05:46:39.110Z,23.45
2018-06-13T05:49:07.627Z,23.55
2018-06-13T05:51:36.209Z,23.72
2018-06-13T05:54:04.634Z,23.86
2018-06-13T05:56:33.176Z,23.69
2018-06-13T05:59:01.897Z,23.64
2018-06-13T06:01:31.326Z,23.78
2018-06-13T06:03:59.636Z,24.03
2018-06-13T06:06:28.115Z,24.31
2018-06-13T06:08:56.796Z,24.45
2018-06-13T06:11:25.283Z,24.24
2018-06-13T06:13:53.835Z,24.11
2018-06-13T06:16:23.066Z,24.40
2018-06-13T06:18:51.749Z,24.45
2018-06-13T06:21:27.427Z,24.85
2018-06-13T06:23:55.667Z,24.91
2018-06-13T06:26:24.266Z,24.88
2018-06-13T06:28:52.674Z,24.90
2018-06-13T06:31:21.101Z,24.92
2018-06-13T06:33:49.691Z,25.15
2018-06-13T06:36:18.161Z,25.10
2018-06-13T06:38:46.653Z,25.21
2018-06-13T06:41:15.312Z,25.37
2018-06-13T06:43:43.720Z,25.24
2018-06-13T06:46:12.097Z,25.35
2018-06-13T06:48:40.805Z,25.44
2018-06-13T06:51:09.267Z,25.63
2018-06-13T06:53:37.848Z,25.51
2018-06-13T06:56:06.425Z,25.62
2018-06-13T06:58:34.825Z,25.73
2018-06-13T07:01:03.454Z,25.87
2018-06-13T07:03:31.754Z,25.96
2018-06-13T07:06:00.250Z,25.91
2018-06-13T07:08:28.735Z,26.03
2018-06-13T07:10:57.212Z,26.25
2018-06-13T07:13:25.677Z,26.04
2018-06-13T07:15:54.186Z,25.84
2018-06-13T07:18:22.758Z,25.85
2018-06-13T07:20:51.322Z,26.06
2018-06-13T07:23:19.865Z,26.21
2018-06-13T07:25:48.458Z,26.51
2018-06-13T07:28:16.986Z,26.56
2018-06-13T07:30:45.490Z,26.48
2018-06-13T07:33:13.982Z,26.48
2018-06-13T07:35:42.318Z,26.54
2018-06-13T07:38:10.782Z,26.53
2018-06-13T07:40:39.189Z,26.61
2018-06-13T07:43:07.367Z,26.90
2018-06-13T07:45:35.702Z,26.79
2018-06-13T07:48:04.266Z,26.87
2018-06-13T07:50:32.872Z,26.86
2018-06-13T07:53:01.511Z,26.84
2018-06-13T07:55:29.990Z,27.01
2018-06-13T07:57:58.492Z,27.18
2018-06-13T08:00:26.854Z,27.23
2018-06-13T08:02:55.640Z,27.48
2018-06-13T08:05:24.270Z,27.48
2018-06-13T08:07:52.932Z,27.66
2018-06-13T08:10:21.514Z,27.75
2018-06-13T08:12:50.057Z,27.26
2018-06-13T08:15:18.556Z,27.44
2018-06-13T08:17:47.120Z,27.86
2018-06-13T08:20:15.638Z,28.01
2018-06-13T08:22:44.099Z,28.01
2018-06-13T08:25:15.550Z,28.00
2018-06-13T08:27:49.869Z,27.95
2018-06-13T08:30:18.381Z,27.89
2018-06-13T08:32:46.933Z,28.02
2018-06-13T08:35:15.457Z,28.29
2018-06-13T08:37:43.957Z,28.42
2018-06-13T08:40:12.721Z,28.43
2018-06-13T08:42:41.269Z,28.01
2018-06-13T08:45:09.706Z,28.33
2018-06-13T08:47:38.280Z,28.46
2018-06-13T08:50:06.722Z,28.57
2018-06-13T08:52:35.201Z,28.66
2018-06-13T08:55:03.790Z,28.64
2018-06-13T08:57:38.825Z,28.73
2018-06-13T09:00:07.257Z,28.65
2018-06-13T09:02:35.893Z,28.84
2018-06-13T09:05:04.568Z,28.90
2018-06-13T09:07:33.731Z,28.92
2018-06-13T09:10:02.159Z,28.93
2018-06-13T09:12:30.541Z,28.96
2018-06-13T09:14:59.225Z,29.06
2018-06-13T09:17:27.552Z,29.12
2018-06-13T09:19:55.970Z,29.24
2018-06-13T09:22:24.470Z,29.23
2018-06-13T09:24:53.127Z,29.20
2018-06-13T09:27:21.506Z,29.16
2018-06-13T09:29:49.902Z,29.27
2018-06-13T09:32:18.523Z,29.41
2018-06-13T09:34:47.178Z,29.41
2018-06-13T09:37:15.661Z,29.53
2018-06-13T09:39:44.365Z,29.54
2018-06-13T09:42:12.909Z,29.54
2018-06-13T09:44:41.565Z,29.65
2018-06-13T09:47:15.130Z,29.91
2018-06-13T09:49:38.477Z,29.93
2018-06-13T09:52:07.009Z,29.86
2018-06-13T09:54:35.443Z,29.96
2018-06-13T09:57:04.009Z,30.12
2018-06-13T09:59:35.260Z,30.16
2018-06-13T10:02:09.313Z,30.13
2018-06-13T10:04:37.683Z,30.23
2018-06-13T10:07:06.228Z,30.24
2018-06-13T10:09:34.737Z,30.22
2018-06-13T10:12:03.301Z,30.22
2018-06-13T10:14:31.882Z,30.25
2018-06-13T10:17:00.978Z,30.37
2018-06-13T10:19:29.501Z,30.45
2018-06-13T10:21:57.848Z,30.52
2018-06-13T10:24:26.578Z,30.47
2018-06-13T10:26:55.240Z,30.41
2018-06-13T10:29:23.897Z,30.32
2018-06-13T10:31:52.286Z,30.38
2018-06-13T10:34:20.871Z,30.67
2018-06-13T10:36:49.290Z,30.72
2018-06-13T10:39:17.767Z,30.73
2018-06-13T10:41:46.255Z,30.85
2018-06-13T10:44:14.482Z,30.82
2018-06-13T10:46:43.173Z,30.87
2018-06-13T10:49:11.692Z,31.01
2018-06-13T10:51:40.170Z,31.06
2018-06-13T10:54:08.709Z,31.12
2018-06-13T10:56:37.258Z,31.06
2018-06-13T10:59:05.598Z,30.97
2018-06-13T11:01:34.264Z,30.96
2018-06-13T11:04:02.751Z,31.05
2018-06-13T11:06:32.499Z,31.07
2018-06-13T11:09:00.933Z,31.18
2018-06-13T11:11:29.290Z,31.12
2018-06-13T11:13:57.713Z,31.18
2018-06-13T11:16:26.272Z,31.08
2018-06-13T11:18:54.930Z,30.94
2018-06-13T11:21:27.132Z,30.83
2018-06-13T11:23:57.851Z,30.99
2018-06-13T11:26:26.358Z,30.86
2018-06-13T11:28:54.922Z,30.99
2018-06-13T11:31:23.320Z,31.19
2018-06-13T11:33:57.258Z,31.08
2018-06-13T11:36:25.702Z,31.19
2018-06-13T11:38:54.297Z,31.29
2018-06-13T11:41:22.779Z,31.30
2018-06-13T11:43:51.530Z,31.32
2018-06-13T11:46:19.954Z,31.40
2018-06-13T11:48:48.554Z,31.55
2018-06-13T11:51:16.823Z,31.25
2018-06-13T11:53:45.409Z,31.12
2018-06-13T11:56:14.013Z,31.13
2018-06-13T11:58:42.529Z,31.30
2018-06-13T12:01:11.017Z,31.51
2018-06-13T12:03:39.514Z,31.53
2018-06-13T12:06:08.012Z,31.42
2018-06-13T12:08:36.368Z,31.44
2018-06-13T12:11:05.066Z,31.42
2018-06-13T12:13:34.079Z,31.37
2018-06-13T12:16:02.594Z,31.44
2018-06-13T12:18:31.225Z,31.39
2018-06-13T12:20:59.558Z,31.37
2018-06-13T12:23:27.887Z,31.39
2018-06-13T12:25:56.265Z,31.44
2018-06-13T12:28:24.746Z,31.45
2018-06-13T12:30:53.208Z,31.44
2018-06-13T12:33:21.631Z,31.54
2018-06-13T12:35:50.242Z,31.41
2018-06-13T12:38:18.662Z,31.37
2018-06-13T12:40:47.271Z,31.52
2018-06-13T12:43:15.923Z,31.65
2018-06-13T12:45:44.443Z,31.58
2018-06-13T12:48:12.966Z,31.44
2018-06-13T12:50:41.386Z,31.48
2018-06-13T12:53:09.979Z,31.63
2018-06-13T12:55:38.338Z,31.55
2018-06-13T12:58:06.817Z,31.59
2018-06-13T13:00:35.245Z,31.58
2018-06-13T13:03:03.591Z,31.58
2018-06-13T13:05:32.086Z,31.71
2018-06-13T13:08:00.341Z,31.45
2018-06-13T13:10:29.632Z,31.61
2018-06-13T13:12:58.032Z,31.55
2018-06-13T13:15:26.453Z,31.56
2018-06-13T13:17:54.885Z,31.49
2018-06-13T13:20:23.469Z,31.34
2018-06-13T13:22:51.964Z,31.48
2018-06-13T13:25:20.380Z,31.33
2018-06-13T13:27:48.918Z,31.27
2018-06-13T13:30:17.674Z,31.43
2018-06-13T13:32:45.996Z,31.30
2018-06-13T13:35:14.554Z,31.49
2018-06-13T13:37:43.038Z,31.42
2018-06-13T13:40:11.509Z,31.43
2018-06-13T13:42:39.907Z,31.48
2018-06-13T13:45:08.385Z,31.36
2018-06-13T13:47:36.700Z,31.40
2018-06-13T13:50:05.486Z,31.26
2018-06-13T13:52:33.933Z,31.29
2018-06-13T13:55:02.675Z,31.29
2018-06-13T13:57:31.100Z,31.27
2018-06-13T13:59:59.814Z,31.31
2018-06-13T14:02:28.288Z,31.10
2018-06-13T14:04:56.862Z,31.10
2018-06-13T14:07:25.539Z,31.32
2018-06-13T14:09:53.918Z,31.52
2018-06-13T14:12:22.273Z,31.15
2018-06-13T14:14:50.772Z,31.22
2018-06-13T14:17:19.161Z,31.17
2018-06-13T14:19:47.440Z,31.20
2018-06-13T14:22:15.818Z,31.37
2018-06-13T14:24:44.311Z,31.30
2018-06-13T14:27:12.800Z,31.22
2018-06-13T14:29:41.301Z,30.99
2018-06-13T14:32:09.538Z,30.98
2018-06-13T14:34:38.022Z,31.01
2018-06-13T14:37:06.554Z,30.91
2018-06-13T14:39:34.878Z,30.85
2018-06-13T14:42:03.190Z,30.78
2018-06-13T14:44:31.749Z,30.75
2018-06-13T14:47:00.118Z,30.60
2018-06-13T14:49:28.594Z,30.61
2018-06-13T14:51:57.049Z,30.74
2018-06-13T14:54:25.466Z,30.76
2018-06-13T14:56:53.937Z,30.81
2018-06-13T14:59:23.192Z,30.76
2018-06-13T15:01:51.560Z,30.84
2018-06-13T15:04:25.449Z,30.70
2018-06-13T15:06:53.898Z,30.90
2018-06-13T15:09:22.289Z,30.88
2018-06-13T15:11:50.557Z,30.88
2018-06-13T15:14:19.178Z,30.84
2018-06-13T15:16:47.412Z,30.74
2018-06-13T15:19:16.031Z,30.93
2018-06-13T15:21:44.307Z,30.79
2018-06-13T15:24:12.685Z,30.71
2018-06-13T15:26:41.272Z,30.66
2018-06-13T15:29:09.666Z,30.64
2018-06-13T15:31:38.125Z,30.95
2018-06-13T15:34:06.689Z,30.76
2018-06-13T15:36:35.117Z,30.71
2018-06-13T15:39:05.851Z,30.74
2018-06-13T15:41:34.902Z,30.64
2018-06-13T15:44:03.416Z,30.59
2018-06-13T15:46:32.185Z,30.54
2018-06-13T15:49:00.677Z,30.33
2018-06-13T15:51:29.135Z,30.50
2018-06-13T15:53:57.765Z,30.39
2018-06-13T15:56:26.130Z,30.40
2018-06-13T15:58:54.506Z,30.68
2018-06-13T16:01:22.941Z,30.70
2018-06-13T16:03:51.391Z,30.64
2018-06-13T16:06:19.950Z,30.71
2018-06-13T16:08:48.501Z,30.55
2018-06-13T16:11:16.878Z,30.31
2018-06-13T16:13:45.368Z,30.26
2018-06-13T16:16:13.838Z,30.32
2018-06-13T16:18:42.324Z,30.27
2018-06-13T16:21:10.962Z,30.25
2018-06-13T16:23:39.545Z,30.39
2018-06-13T16:26:07.900Z,30.34
2018-06-13T16:28:36.569Z,30.20
2018-06-13T16:31:05.051Z,30.07
2018-06-13T16:33:33.344Z,30.10
2018-06-13T16:36:01.904Z,30.02
2018-06-13T16:38:30.414Z,30.11
2018-06-13T16:40:58.892Z,29.96
2018-06-13T16:43:27.449Z,29.83
2018-06-13T16:45:55.826Z,29.81
2018-06-13T16:48:24.311Z,29.71
2018-06-13T16:51:03.695Z,29.74
2018-06-13T16:53:52.814Z,29.83
2018-06-13T16:56:21.306Z,29.71
2018-06-13T16:58:50.442Z,29.63
2018-06-13T17:01:18.785Z,29.67
2018-06-13T17:03:47.337Z,29.53
2018-06-13T17:06:15.706Z,29.47
2018-06-13T17:08:44.114Z,29.47
2018-06-13T17:11:13.722Z,29.53
2018-06-13T17:13:42.367Z,29.59
2018-06-13T17:16:10.824Z,29.45
2018-06-13T17:18:39.091Z,29.50
2018-06-13T17:21:07.732Z,29.42
2018-06-13T17:23:36.642Z,29.22
2018-06-13T17:26:06.142Z,29.20
2018-06-13T17:28:35.578Z,29.18
2018-06-13T17:31:04.198Z,29.28
2018-06-13T17:33:32.865Z,29.18
2018-06-13T17:36:01.389Z,29.12
2018-06-13T17:38:29.909Z,29.13
2018-06-13T17:40:58.302Z,29.08
2018-06-13T17:43:26.342Z,29.05
2018-06-13T17:45:54.729Z,29.05
2018-06-13T17:48:23.126Z,28.97
2018-06-13T17:50:51.868Z,28.88
2018-06-13T17:53:20.378Z,28.85
2018-06-13T17:55:48.753Z,28.91
2018-06-13T17:58:17.128Z,28.95
2018-06-13T18:00:46.432Z,28.96
2018-06-13T18:03:14.842Z,28.91
2018-06-13T18:05:43.165Z,28.92
2018-06-13T18:08:11.664Z,29.00
2018-06-13T18:10:40.146Z,28.90
2018-06-13T18:13:09.414Z,28.80
2018-06-13T18:15:37.826Z,28.91
2018-06-13T18:18:06.513Z,28.88
2018-06-13T18:20:35.920Z,28.80
2018-06-13T18:23:04.496Z,28.82
2018-06-13T18:25:32.986Z,28.87
2018-06-13T18:28:01.467Z,28.81
2018-06-13T18:30:30.045Z,28.64
2018-06-13T18:32:58.686Z,28.58
2018-06-13T18:35:27.043Z,28.42
2018-06-13T18:37:55.725Z,28.44
2018-06-13T18:40:24.306Z,28.36
2018-06-13T18:42:52.763Z,28.26
2018-06-13T18:45:21.459Z,28.26
2018-06-13T18:47:49.557Z,28.09
2018-06-13T18:50:18.589Z,27.98
2018-06-13T18:52:47.799Z,27.97
2018-06-13T18:55:16.158Z,27.96
2018-06-13T18:57:44.738Z,28.10
2018-06-13T19:00:14.110Z,28.16
2018-06-13T19:02:42.650Z,28.02
2018-06-13T19:05:11.249Z,27.98
2018-06-13T19:07:39.501Z,27.95
2018-06-13T19:10:07.999Z,28.04
2018-06-13T19:12:36.461Z,27.91
2018-06-13T19:15:05.927Z,27.88
2018-06-13T19:17:34.378Z,27.69
2018-06-13T19:20:02.940Z,27.49
2018-06-13T19:22:31.539Z,27.45
2018-06-13T19:24:59.933Z,27.36
2018-06-13T19:27:28.398Z,27.37
2018-06-13T19:29:56.814Z,27.30
2018-06-13T19:32:25.195Z,27.27
2018-06-13T19:34:53.513Z,27.11
2018-06-13T19:37:21.926Z,27.08
2018-06-13T19:39:50.503Z,27.03
2018-06-13T19:42:18.954Z,27.06
2018-06-13T19:44:47.395Z,27.11
2018-06-13T19:47:21.151Z,27.27
2018-06-13T19:49:49.674Z,27.36
2018-06-13T19:52:18.405Z,27.85
2018-06-13T19:54:52.118Z,27.90
2018-06-13T19:57:20.525Z,27.72
2018-06-13T19:59:48.909Z,27.80
2018-06-13T20:02:17.044Z,27.47
2018-06-13T20:04:50.803Z,27.31
2018-06-13T20:07:19.338Z,27.48
2018-06-13T20:09:47.936Z,27.45
2018-06-13T20:13:57.746Z,27.23
2018-06-13T20:16:43.361Z,27.12
2018-06-13T20:19:17.086Z,27.04
2018-06-13T20:21:45.340Z,27.29
2018-06-13T20:24:13.627Z,27.06
2018-06-13T20:26:47.302Z,26.92
2018-06-13T20:29:21.038Z,26.91
2018-06-13T20:31:49.645Z,27.33
2018-06-13T20:34:18.186Z,27.39
2018-06-13T20:36:46.561Z,27.02
2018-06-13T20:39:15.090Z,26.87
2018-06-13T20:41:43.441Z,26.67
2018-06-13T20:44:12.049Z,26.55
2018-06-13T20:46:40.546Z,26.39
2018-06-13T20:49:08.936Z,26.38
2018-06-13T20:51:40.444Z,26.49
2018-06-13T20:54:08.788Z,26.42
2018-06-13T20:56:37.350Z,26.21
2018-06-13T20:59:05.884Z,26.16
2018-06-13T21:01:34.262Z,26.10
2018-06-13T21:04:02.765Z,26.30
2018-06-13T21:06:31.175Z,26.38
2018-06-13T21:08:59.402Z,26.60
2018-06-13T21:11:27.945Z,26.64
2018-06-13T21:13:56.595Z,26.50
2018-06-13T21:16:24.931Z,26.54
2018-06-13T21:18:53.454Z,26.58
2018-06-13T21:21:21.810Z,26.55
2018-06-13T21:23:50.400Z,26.36
2018-06-13T21:26:18.969Z,26.37
2018-06-13T21:28:47.349Z,26.49
2018-06-13T21:31:15.874Z,26.44
2018-06-13T21:33:44.314Z,26.36
2018-06-13T21:36:13.677Z,26.35
2018-06-13T21:38:42.098Z,26.34
2018-06-13T21:41:10.501Z,26.11
2018-06-13T21:43:39.121Z,26.19
2018-06-13T21:46:07.464Z,26.29
2018-06-13T21:48:35.851Z,26.27
2018-06-13T21:51:08.479Z,26.35
2018-06-13T21:53:37.006Z,26.31
2018-06-13T21:56:05.504Z,26.32
2018-06-13T21:58:33.882Z,26.38
2018-06-13T22:01:02.453Z,26.35
2018-06-13T22:03:31.066Z,26.36
2018-06-13T22:05:59.298Z,26.31
2018-06-13T22:08:27.766Z,26.23
2018-06-13T22:10:56.067Z,26.28
2018-06-13T22:13:24.529Z,26.20
2018-06-13T22:15:52.809Z,26.16
2018-06-13T22:18:21.221Z,26.04
2018-06-13T22:20:49.661Z,26.13
2018-06-13T22:23:18.151Z,26.20
2018-06-13T22:25:46.758Z,26.26
2018-06-13T22:28:15.007Z,26.31
2018-06-13T22:30:43.629Z,26.34
2018-06-13T22:33:12.021Z,26.27
2018-06-13T22:35:40.345Z,26.16
2018-06-13T22:38:08.667Z,26.06
2018-06-13T22:40:37.100Z,26.07
2018-06-13T22:43:05.477Z,26.05
2018-06-13T22:45:40.497Z,26.00
2018-06-13T22:48:08.993Z,26.07
2018-06-13T22:50:37.279Z,25.95
2018-06-13T22:53:06.717Z,25.96
2018-06-13T22:55:35.266Z,25.92
2018-06-13T22:58:03.726Z,25.86
2018-06-13T23:00:38.501Z,25.68
2018-06-13T23:03:06.737Z,25.72
2018-06-13T23:05:35.131Z,25.86
2018-06-13T23:08:03.454Z,26.05
2018-06-13T23:10:31.785Z,26.28
2018-06-13T23:13:00.159Z,26.41
2018-06-13T23:15:28.442Z,26.09
2018-06-13T23:17:57.026Z,25.68
2018-06-13T23:20:25.536Z,25.49
2018-06-13T23:22:54.055Z,25.14
2018-06-13T23:25:22.526Z,25.16
2018-06-13T23:27:51.014Z,25.19
2018-06-13T23:30:20.279Z,25.19
2018-06-13T23:32:48.824Z,25.06
2018-06-13T23:35:17.254Z,24.99
2018-06-13T23:37:45.629Z,25.11
2018-06-13T23:40:14.089Z,25.18
2018-06-13T23:42:42.707Z,25.26
2018-06-13T23:45:10.983Z,25.24
2018-06-13T23:47:39.214Z,25.25
2018-06-13T23:50:07.570Z,25.12
2018-06-13T23:52:36.142Z,24.91
2018-06-13T23:55:04.650Z,24.81
2018-06-13T23:57:33.024Z,24.99
